sensor_id;sensor_type;location;lat;lon;timestamp;P1;durP1;ratioP1;P2;durP2;ratioP2
69625;SDS011;56847;51.984;5.088;2024-03-06T00:02:21;47.70;;;26.83;;
69625;SDS011;56847;51.984;5.088;2024-03-06T00:04:49;42.17;;;24.85;;
69625;SDS011;56847;51.984;5.088;2024-03-06T00:07:16;42.60;;;24.70;;
69625;SDS011;56847;51.984;5.088;2024-03-06T00:09:43;45.28;;;25.50;;
69625;SDS011;56847;51.984;5.088;2024-03-06T00:12:11;40.78;;;25.67;;
69625;SDS011;56847;51.984;5.088;2024-03-06T00:14:38;40.78;;;25.05;;
69625;SDS011;56847;51.984;5.088;2024-03-06T00:17:06;44.67;;;27.08;;
69625;SDS011;56847;51.984;5.088;2024-03-06T00:19:34;49.07;;;27.73;;
69625;SDS011;56847;51.984;5.088;2024-03-06T00:22:01;45.05;;;25.95;;
69625;SDS011;56847;51.984;5.088;2024-03-06T00:24:29;41.03;;;26.13;;
69625;SDS011;56847;51.984;5.088;2024-03-06T00:26:56;43.70;;;27.00;;
69625;SDS011;56847;51.984;5.088;2024-03-06T00:29:23;46.58;;;27.33;;
69625;SDS011;56847;51.984;5.088;2024-03-06T00:31:50;43.23;;;26.93;;
69625;SDS011;56847;51.984;5.088;2024-03-06T00:34:17;48.00;;;27.48;;
69625;SDS011;56847;51.984;5.088;2024-03-06T00:36:44;46.47;;;27.63;;
69625;SDS011;56847;51.984;5.088;2024-03-06T00:39:12;50.22;;;28.38;;
69625;SDS011;56847;51.984;5.088;2024-03-06T00:41:42;46.58;;;28.02;;
69625;SDS011;56847;51.984;5.088;2024-03-06T00:44:09;41.83;;;26.47;;
69625;SDS011;56847;51.984;5.088;2024-03-06T00:46:38;47.60;;;26.63;;
69625;SDS011;56847;51.984;5.088;2024-03-06T00:49:05;46.60;;;28.80;;
69625;SDS011;56847;51.984;5.088;2024-03-06T00:51:32;48.47;;;27.45;;
69625;SDS011;56847;51.984;5.088;2024-03-06T00:54:13;42.90;;;25.98;;
69625;SDS011;56847;51.984;5.088;2024-03-06T00:56:40;41.57;;;25.73;;
69625;SDS011;56847;51.984;5.088;2024-03-06T00:59:07;46.85;;;25.80;;
69625;SDS011;56847;51.984;5.088;2024-03-06T01:01:35;41.78;;;25.92;;
69625;SDS011;56847;51.984;5.088;2024-03-06T01:04:02;46.65;;;26.23;;
69625;SDS011;56847;51.984;5.088;2024-03-06T01:06:29;40.85;;;27.23;;
69625;SDS011;56847;51.984;5.088;2024-03-06T01:08:56;43.03;;;25.73;;
69625;SDS011;56847;51.984;5.088;2024-03-06T01:11:25;48.95;;;27.02;;
69625;SDS011;56847;51.984;5.088;2024-03-06T01:13:53;43.47;;;27.10;;
69625;SDS011;56847;51.984;5.088;2024-03-06T01:16:21;44.63;;;26.27;;
69625;SDS011;56847;51.984;5.088;2024-03-06T01:18:48;48.80;;;27.83;;
69625;SDS011;56847;51.984;5.088;2024-03-06T01:21:15;43.33;;;27.43;;
69625;SDS011;56847;51.984;5.088;2024-03-06T01:23:42;46.03;;;27.55;;
69625;SDS011;56847;51.984;5.088;2024-03-06T01:26:10;50.90;;;29.30;;
69625;SDS011;56847;51.984;5.088;2024-03-06T01:28:38;46.63;;;27.77;;
69625;SDS011;56847;51.984;5.088;2024-03-06T01:31:06;44.97;;;28.13;;
69625;SDS011;56847;51.984;5.088;2024-03-06T01:33:33;46.00;;;28.60;;
69625;SDS011;56847;51.984;5.088;2024-03-06T01:36:00;51.00;;;28.80;;
69625;SDS011;56847;51.984;5.088;2024-03-06T01:38:28;50.63;;;30.25;;
69625;SDS011;56847;51.984;5.088;2024-03-06T01:40:55;47.83;;;28.30;;
69625;SDS011;56847;51.984;5.088;2024-03-06T01:43:26;54.88;;;29.77;;
69625;SDS011;56847;51.984;5.088;2024-03-06T01:45:53;52.50;;;29.00;;
69625;SDS011;56847;51.984;5.088;2024-03-06T01:48:21;50.03;;;29.10;;
69625;SDS011;56847;51.984;5.088;2024-03-06T01:50:50;53.20;;;31.33;;
69625;SDS011;56847;51.984;5.088;2024-03-06T01:53:18;51.20;;;29.55;;
69625;SDS011;56847;51.984;5.088;2024-03-06T01:55:46;50.58;;;30.35;;
69625;SDS011;56847;51.984;5.088;2024-03-06T01:58:15;46.33;;;28.37;;
69625;SDS011;56847;51.984;5.088;2024-03-06T02:00:42;51.90;;;27.05;;
69625;SDS011;56847;51.984;5.088;2024-03-06T02:03:10;47.40;;;28.65;;
69625;SDS011;56847;51.984;5.088;2024-03-06T02:05:38;49.38;;;29.30;;
69625;SDS011;56847;51.984;5.088;2024-03-06T02:08:07;45.78;;;28.08;;
69625;SDS011;56847;51.984;5.088;2024-03-06T02:10:37;44.27;;;27.40;;
69625;SDS011;56847;51.984;5.088;2024-03-06T02:13:04;48.38;;;27.60;;
69625;SDS011;56847;51.984;5.088;2024-03-06T02:15:32;49.30;;;28.83;;
69625;SDS011;56847;51.984;5.088;2024-03-06T02:18:02;48.50;;;27.50;;
69625;SDS011;56847;51.984;5.088;2024-03-06T02:20:32;47.90;;;28.35;;
69625;SDS011;56847;51.984;5.088;2024-03-06T02:23:01;43.67;;;25.17;;
69625;SDS011;56847;51.984;5.088;2024-03-06T02:25:29;45.90;;;27.63;;
69625;SDS011;56847;51.984;5.088;2024-03-06T02:27:56;45.50;;;28.02;;
69625;SDS011;56847;51.984;5.088;2024-03-06T02:30:23;56.42;;;28.83;;
69625;SDS011;56847;51.984;5.088;2024-03-06T02:32:50;47.97;;;28.77;;
69625;SDS011;56847;51.984;5.088;2024-03-06T02:35:18;47.70;;;28.30;;
69625;SDS011;56847;51.984;5.088;2024-03-06T02:37:45;45.10;;;28.50;;
69625;SDS011;56847;51.984;5.088;2024-03-06T02:40:12;47.72;;;27.23;;
69625;SDS011;56847;51.984;5.088;2024-03-06T02:42:39;42.75;;;25.88;;
69625;SDS011;56847;51.984;5.088;2024-03-06T02:45:06;53.53;;;28.58;;
69625;SDS011;56847;51.984;5.088;2024-03-06T02:47:37;43.53;;;27.07;;
69625;SDS011;56847;51.984;5.088;2024-03-06T02:50:05;53.60;;;29.85;;
69625;SDS011;56847;51.984;5.088;2024-03-06T02:52:34;51.13;;;29.88;;
69625;SDS011;56847;51.984;5.088;2024-03-06T02:55:01;47.60;;;28.10;;
69625;SDS011;56847;51.984;5.088;2024-03-06T02:57:28;44.13;;;27.45;;
69625;SDS011;56847;51.984;5.088;2024-03-06T02:59:56;49.80;;;27.33;;
69625;SDS011;56847;51.984;5.088;2024-03-06T03:02:24;49.70;;;27.25;;
69625;SDS011;56847;51.984;5.088;2024-03-06T03:04:52;49.58;;;29.65;;
69625;SDS011;56847;51.984;5.088;2024-03-06T03:07:19;48.88;;;27.40;;
69625;SDS011;56847;51.984;5.088;2024-03-06T03:09:47;50.15;;;29.33;;
69625;SDS011;56847;51.984;5.088;2024-03-06T03:12:14;47.43;;;28.47;;
69625;SDS011;56847;51.984;5.088;2024-03-06T03:14:42;45.95;;;27.42;;
69625;SDS011;56847;51.984;5.088;2024-03-06T03:17:09;58.70;;;31.10;;
69625;SDS011;56847;51.984;5.088;2024-03-06T03:19:37;44.17;;;26.40;;
69625;SDS011;56847;51.984;5.088;2024-03-06T03:22:06;47.40;;;29.92;;
69625;SDS011;56847;51.984;5.088;2024-03-06T03:24:36;54.43;;;31.17;;
69625;SDS011;56847;51.984;5.088;2024-03-06T03:27:03;49.08;;;29.02;;
69625;SDS011;56847;51.984;5.088;2024-03-06T03:29:30;56.22;;;31.35;;
69625;SDS011;56847;51.984;5.088;2024-03-06T03:31:57;53.35;;;30.40;;
69625;SDS011;56847;51.984;5.088;2024-03-06T03:34:25;47.92;;;29.98;;
69625;SDS011;56847;51.984;5.088;2024-03-06T03:36:52;50.13;;;30.30;;
69625;SDS011;56847;51.984;5.088;2024-03-06T03:39:19;51.65;;;29.65;;
69625;SDS011;56847;51.984;5.088;2024-03-06T03:41:48;51.22;;;29.73;;
69625;SDS011;56847;51.984;5.088;2024-03-06T03:44:16;58.28;;;29.92;;
69625;SDS011;56847;51.984;5.088;2024-03-06T03:46:45;48.70;;;29.45;;
69625;SDS011;56847;51.984;5.088;2024-03-06T03:49:13;53.20;;;30.40;;
69625;SDS011;56847;51.984;5.088;2024-03-06T03:51:40;52.30;;;29.83;;
69625;SDS011;56847;51.984;5.088;2024-03-06T03:54:07;54.78;;;31.55;;
69625;SDS011;56847;51.984;5.088;2024-03-06T03:56:34;56.00;;;29.20;;
69625;SDS011;56847;51.984;5.088;2024-03-06T03:59:01;55.83;;;32.05;;
69625;SDS011;56847;51.984;5.088;2024-03-06T04:01:29;55.10;;;30.53;;
69625;SDS011;56847;51.984;5.088;2024-03-06T04:03:57;58.25;;;30.90;;
69625;SDS011;56847;51.984;5.088;2024-03-06T04:06:24;56.55;;;31.75;;
69625;SDS011;56847;51.984;5.088;2024-03-06T04:08:51;57.25;;;30.42;;
69625;SDS011;56847;51.984;5.088;2024-03-06T04:11:19;56.92;;;31.25;;
69625;SDS011;56847;51.984;5.088;2024-03-06T04:13:46;59.13;;;31.97;;
69625;SDS011;56847;51.984;5.088;2024-03-06T04:16:17;60.92;;;30.73;;
69625;SDS011;56847;51.984;5.088;2024-03-06T04:18:45;64.30;;;35.03;;
69625;SDS011;56847;51.984;5.088;2024-03-06T04:21:13;57.60;;;31.58;;
69625;SDS011;56847;51.984;5.088;2024-03-06T04:23:43;62.75;;;35.30;;
69625;SDS011;56847;51.984;5.088;2024-03-06T04:26:10;63.97;;;33.90;;
69625;SDS011;56847;51.984;5.088;2024-03-06T04:28:41;57.17;;;31.50;;
69625;SDS011;56847;51.984;5.088;2024-03-06T04:31:08;66.57;;;33.80;;
69625;SDS011;56847;51.984;5.088;2024-03-06T04:33:36;76.97;;;34.90;;
69625;SDS011;56847;51.984;5.088;2024-03-06T04:36:04;70.95;;;36.50;;
69625;SDS011;56847;51.984;5.088;2024-03-06T04:38:32;62.50;;;32.17;;
69625;SDS011;56847;51.984;5.088;2024-03-06T04:40:59;115.53;;;37.08;;
69625;SDS011;56847;51.984;5.088;2024-03-06T04:43:26;63.63;;;33.42;;
69625;SDS011;56847;51.984;5.088;2024-03-06T04:45:54;64.45;;;35.10;;
69625;SDS011;56847;51.984;5.088;2024-03-06T04:48:21;88.68;;;34.35;;
69625;SDS011;56847;51.984;5.088;2024-03-06T04:50:48;77.43;;;33.87;;
69625;SDS011;56847;51.984;5.088;2024-03-06T04:53:15;76.78;;;36.03;;
69625;SDS011;56847;51.984;5.088;2024-03-06T04:55:43;99.38;;;35.08;;
69625;SDS011;56847;51.984;5.088;2024-03-06T04:58:11;67.68;;;35.75;;
69625;SDS011;56847;51.984;5.088;2024-03-06T05:00:39;63.13;;;33.17;;
69625;SDS011;56847;51.984;5.088;2024-03-06T05:03:06;80.93;;;33.63;;
69625;SDS011;56847;51.984;5.088;2024-03-06T05:05:50;112.50;;;33.75;;
69625;SDS011;56847;51.984;5.088;2024-03-06T05:08:34;156.80;;;34.33;;
69625;SDS011;56847;51.984;5.088;2024-03-06T05:11:19;101.82;;;31.05;;
69625;SDS011;56847;51.984;5.088;2024-03-06T05:14:03;282.80;;;35.00;;
69625;SDS011;56847;51.984;5.088;2024-03-06T05:16:47;343.93;;;34.33;;
69625;SDS011;56847;51.984;5.088;2024-03-06T05:19:32;276.08;;;34.63;;
69625;SDS011;56847;51.984;5.088;2024-03-06T05:22:16;324.83;;;34.50;;
69625;SDS011;56847;51.984;5.088;2024-03-06T05:25:01;168.98;;;31.90;;
69625;SDS011;56847;51.984;5.088;2024-03-06T05:27:45;211.20;;;32.33;;
69625;SDS011;56847;51.984;5.088;2024-03-06T05:30:29;185.70;;;31.77;;
69625;SDS011;56847;51.984;5.088;2024-03-06T05:33:14;268.98;;;31.73;;
69625;SDS011;56847;51.984;5.088;2024-03-06T05:35:59;208.98;;;31.17;;
69625;SDS011;56847;51.984;5.088;2024-03-06T05:38:47;261.42;;;31.27;;
69625;SDS011;56847;51.984;5.088;2024-03-06T05:41:32;165.95;;;30.17;;
69625;SDS011;56847;51.984;5.088;2024-03-06T05:44:18;157.87;;;29.60;;
69625;SDS011;56847;51.984;5.088;2024-03-06T05:47:02;91.53;;;27.20;;
69625;SDS011;56847;51.984;5.088;2024-03-06T05:49:47;127.55;;;29.48;;
69625;SDS011;56847;51.984;5.088;2024-03-06T05:52:32;195.80;;;29.42;;
69625;SDS011;56847;51.984;5.088;2024-03-06T05:55:16;124.97;;;25.95;;
69625;SDS011;56847;51.984;5.088;2024-03-06T05:58:01;122.60;;;25.83;;
69625;SDS011;56847;51.984;5.088;2024-03-06T06:00:37;80.28;;;26.33;;
69625;SDS011;56847;51.984;5.088;2024-03-06T06:03:07;81.50;;;28.73;;
69625;SDS011;56847;51.984;5.088;2024-03-06T06:05:35;54.22;;;27.55;;
69625;SDS011;56847;51.984;5.088;2024-03-06T06:08:03;52.90;;;28.85;;
69625;SDS011;56847;51.984;5.088;2024-03-06T06:10:31;76.40;;;26.93;;
69625;SDS011;56847;51.984;5.088;2024-03-06T06:12:59;52.72;;;26.95;;
69625;SDS011;56847;51.984;5.088;2024-03-06T06:15:27;38.22;;;26.25;;
69625;SDS011;56847;51.984;5.088;2024-03-06T06:17:54;46.35;;;26.98;;
69625;SDS011;56847;51.984;5.088;2024-03-06T06:20:21;55.35;;;26.33;;
69625;SDS011;56847;51.984;5.088;2024-03-06T06:22:48;37.53;;;26.13;;
69625;SDS011;56847;51.984;5.088;2024-03-06T06:25:15;38.22;;;26.92;;
69625;SDS011;56847;51.984;5.088;2024-03-06T06:27:44;38.28;;;27.10;;
69625;SDS011;56847;51.984;5.088;2024-03-06T06:30:11;35.65;;;25.15;;
69625;SDS011;56847;51.984;5.088;2024-03-06T06:32:42;43.20;;;26.88;;
69625;SDS011;56847;51.984;5.088;2024-03-06T06:35:10;38.17;;;24.33;;
69625;SDS011;56847;51.984;5.088;2024-03-06T06:37:40;36.10;;;24.83;;
69625;SDS011;56847;51.984;5.088;2024-03-06T06:40:07;41.67;;;28.13;;
69625;SDS011;56847;51.984;5.088;2024-03-06T06:42:35;34.92;;;26.73;;
69625;SDS011;56847;51.984;5.088;2024-03-06T06:45:03;42.08;;;27.48;;
69625;SDS011;56847;51.984;5.088;2024-03-06T06:47:33;36.93;;;26.60;;
69625;SDS011;56847;51.984;5.088;2024-03-06T06:50:01;36.47;;;25.92;;
69625;SDS011;56847;51.984;5.088;2024-03-06T06:52:32;37.05;;;26.00;;
69625;SDS011;56847;51.984;5.088;2024-03-06T06:55:00;34.40;;;24.60;;
69625;SDS011;56847;51.984;5.088;2024-03-06T06:57:29;34.67;;;23.58;;
69625;SDS011;56847;51.984;5.088;2024-03-06T06:59:56;35.33;;;25.00;;
69625;SDS011;56847;51.984;5.088;2024-03-06T07:02:23;31.50;;;23.23;;
69625;SDS011;56847;51.984;5.088;2024-03-06T07:04:51;37.28;;;25.67;;
69625;SDS011;56847;51.984;5.088;2024-03-06T07:07:18;33.97;;;24.35;;
69625;SDS011;56847;51.984;5.088;2024-03-06T07:09:45;33.83;;;24.40;;
69625;SDS011;56847;51.984;5.088;2024-03-06T07:12:12;31.57;;;22.73;;
69625;SDS011;56847;51.984;5.088;2024-03-06T07:14:40;33.20;;;24.38;;
69625;SDS011;56847;51.984;5.088;2024-03-06T07:17:07;37.30;;;25.50;;
69625;SDS011;56847;51.984;5.088;2024-03-06T07:19:34;36.08;;;24.58;;
69625;SDS011;56847;51.984;5.088;2024-03-06T07:22:01;36.67;;;27.35;;
69625;SDS011;56847;51.984;5.088;2024-03-06T07:24:28;34.70;;;25.20;;
69625;SDS011;56847;51.984;5.088;2024-03-06T07:26:55;30.65;;;23.83;;
69625;SDS011;56847;51.984;5.088;2024-03-06T07:29:23;35.20;;;25.48;;
69625;SDS011;56847;51.984;5.088;2024-03-06T07:31:50;33.70;;;23.73;;
69625;SDS011;56847;51.984;5.088;2024-03-06T07:34:17;31.27;;;24.33;;
69625;SDS011;56847;51.984;5.088;2024-03-06T07:36:44;34.53;;;24.30;;
69625;SDS011;56847;51.984;5.088;2024-03-06T07:39:14;34.60;;;24.83;;
69625;SDS011;56847;51.984;5.088;2024-03-06T07:41:42;33.42;;;24.30;;
69625;SDS011;56847;51.984;5.088;2024-03-06T07:44:09;41.33;;;24.63;;
69625;SDS011;56847;51.984;5.088;2024-03-06T07:46:36;36.72;;;25.58;;
69625;SDS011;56847;51.984;5.088;2024-03-06T07:49:03;37.67;;;23.90;;
69625;SDS011;56847;51.984;5.088;2024-03-06T07:51:34;34.13;;;24.25;;
69625;SDS011;56847;51.984;5.088;2024-03-06T07:54:02;33.80;;;24.75;;
69625;SDS011;56847;51.984;5.088;2024-03-06T07:56:31;33.42;;;22.42;;
69625;SDS011;56847;51.984;5.088;2024-03-06T07:58:59;35.40;;;24.83;;
69625;SDS011;56847;51.984;5.088;2024-03-06T08:01:27;33.50;;;24.33;;
69625;SDS011;56847;51.984;5.088;2024-03-06T08:03:55;38.45;;;23.88;;
69625;SDS011;56847;51.984;5.088;2024-03-06T08:06:22;35.97;;;26.40;;
69625;SDS011;56847;51.984;5.088;2024-03-06T08:08:55;38.00;;;26.67;;
69625;SDS011;56847;51.984;5.088;2024-03-06T08:11:27;44.55;;;28.63;;
69625;SDS011;56847;51.984;5.088;2024-03-06T08:13:57;56.93;;;23.90;;
69625;SDS011;56847;51.984;5.088;2024-03-06T08:16:25;60.08;;;23.92;;
69625;SDS011;56847;51.984;5.088;2024-03-06T08:18:52;89.63;;;25.27;;
69625;SDS011;56847;51.984;5.088;2024-03-06T08:21:19;66.28;;;25.45;;
69625;SDS011;56847;51.984;5.088;2024-03-06T08:23:46;58.05;;;25.42;;
69625;SDS011;56847;51.984;5.088;2024-03-06T08:26:16;70.13;;;24.63;;
69625;SDS011;56847;51.984;5.088;2024-03-06T08:28:43;106.78;;;25.42;;
69625;SDS011;56847;51.984;5.088;2024-03-06T08:31:10;79.25;;;26.45;;
69625;SDS011;56847;51.984;5.088;2024-03-06T08:33:37;46.70;;;25.70;;
69625;SDS011;56847;51.984;5.088;2024-03-06T08:36:04;44.83;;;26.20;;
69625;SDS011;56847;51.984;5.088;2024-03-06T08:38:32;73.57;;;24.73;;
69625;SDS011;56847;51.984;5.088;2024-03-06T08:40:59;50.88;;;26.13;;
69625;SDS011;56847;51.984;5.088;2024-03-06T08:43:26;45.38;;;27.27;;
69625;SDS011;56847;51.984;5.088;2024-03-06T08:45:53;84.13;;;26.05;;
69625;SDS011;56847;51.984;5.088;2024-03-06T08:48:20;59.15;;;27.73;;
69625;SDS011;56847;51.984;5.088;2024-03-06T08:50:48;49.70;;;25.73;;
69625;SDS011;56847;51.984;5.088;2024-03-06T08:53:15;38.33;;;26.40;;
69625;SDS011;56847;51.984;5.088;2024-03-06T08:55:43;67.68;;;27.00;;
69625;SDS011;56847;51.984;5.088;2024-03-06T08:58:10;39.28;;;26.75;;
69625;SDS011;56847;51.984;5.088;2024-03-06T09:00:37;65.50;;;25.77;;
69625;SDS011;56847;51.984;5.088;2024-03-06T09:03:04;168.40;;;25.00;;
69625;SDS011;56847;51.984;5.088;2024-03-06T09:05:31;180.85;;;25.20;;
69625;SDS011;56847;51.984;5.088;2024-03-06T09:07:58;139.98;;;26.45;;
69625;SDS011;56847;51.984;5.088;2024-03-06T09:10:28;55.50;;;23.27;;
69625;SDS011;56847;51.984;5.088;2024-03-06T09:12:55;88.15;;;25.80;;
69625;SDS011;56847;51.984;5.088;2024-03-06T09:15:22;128.40;;;25.07;;
69625;SDS011;56847;51.984;5.088;2024-03-06T09:17:50;64.25;;;24.30;;
69625;SDS011;56847;51.984;5.088;2024-03-06T09:20:18;71.82;;;24.92;;
69625;SDS011;56847;51.984;5.088;2024-03-06T09:22:45;67.50;;;24.92;;
69625;SDS011;56847;51.984;5.088;2024-03-06T09:25:12;53.38;;;25.60;;
69625;SDS011;56847;51.984;5.088;2024-03-06T09:27:41;49.00;;;23.80;;
69625;SDS011;56847;51.984;5.088;2024-03-06T09:30:09;50.42;;;24.83;;
69625;SDS011;56847;51.984;5.088;2024-03-06T09:32:37;109.32;;;27.15;;
69625;SDS011;56847;51.984;5.088;2024-03-06T09:35:05;41.83;;;25.80;;
69625;SDS011;56847;51.984;5.088;2024-03-06T09:37:33;80.25;;;25.77;;
69625;SDS011;56847;51.984;5.088;2024-03-06T09:40:00;62.70;;;24.97;;
69625;SDS011;56847;51.984;5.088;2024-03-06T09:42:27;47.38;;;25.60;;
69625;SDS011;56847;51.984;5.088;2024-03-06T09:44:54;57.78;;;25.75;;
69625;SDS011;56847;51.984;5.088;2024-03-06T09:47:22;47.35;;;26.00;;
69625;SDS011;56847;51.984;5.088;2024-03-06T09:49:51;46.75;;;26.75;;
69625;SDS011;56847;51.984;5.088;2024-03-06T09:52:21;36.50;;;24.50;;
69625;SDS011;56847;51.984;5.088;2024-03-06T09:54:54;40.67;;;26.08;;
69625;SDS011;56847;51.984;5.088;2024-03-06T09:57:22;52.25;;;27.45;;
69625;SDS011;56847;51.984;5.088;2024-03-06T09:59:49;48.15;;;26.48;;
69625;SDS011;56847;51.984;5.088;2024-03-06T10:02:59;38.10;;;25.92;;
69625;SDS011;56847;51.984;5.088;2024-03-06T10:05:39;59.80;;;25.67;;
69625;SDS011;56847;51.984;5.088;2024-03-06T10:08:09;42.13;;;26.42;;
69625;SDS011;56847;51.984;5.088;2024-03-06T10:10:36;44.10;;;26.65;;
69625;SDS011;56847;51.984;5.088;2024-03-06T10:13:03;53.38;;;27.35;;
69625;SDS011;56847;51.984;5.088;2024-03-06T10:15:31;49.03;;;27.40;;
69625;SDS011;56847;51.984;5.088;2024-03-06T10:18:15;40.90;;;27.37;;
69625;SDS011;56847;51.984;5.088;2024-03-06T10:20:44;40.35;;;29.77;;
69625;SDS011;56847;51.984;5.088;2024-03-06T10:23:12;49.03;;;29.38;;
69625;SDS011;56847;51.984;5.088;2024-03-06T10:25:39;38.03;;;28.45;;
69625;SDS011;56847;51.984;5.088;2024-03-06T10:28:09;47.13;;;30.17;;
69625;SDS011;56847;51.984;5.088;2024-03-06T10:30:38;44.70;;;29.83;;
69625;SDS011;56847;51.984;5.088;2024-03-06T10:33:10;48.05;;;31.80;;
69625;SDS011;56847;51.984;5.088;2024-03-06T10:35:45;53.03;;;32.83;;
69625;SDS011;56847;51.984;5.088;2024-03-06T10:38:14;43.78;;;30.23;;
69625;SDS011;56847;51.984;5.088;2024-03-06T10:40:42;45.55;;;32.28;;
69625;SDS011;56847;51.984;5.088;2024-03-06T10:43:10;46.97;;;30.93;;
69625;SDS011;56847;51.984;5.088;2024-03-06T10:45:50;43.50;;;29.92;;
69625;SDS011;56847;51.984;5.088;2024-03-06T10:48:22;48.60;;;32.22;;
69625;SDS011;56847;51.984;5.088;2024-03-06T10:50:52;45.33;;;31.38;;
69625;SDS011;56847;51.984;5.088;2024-03-06T10:53:20;46.28;;;30.80;;
69625;SDS011;56847;51.984;5.088;2024-03-06T10:55:52;41.57;;;30.03;;
69625;SDS011;56847;51.984;5.088;2024-03-06T10:58:21;42.45;;;29.30;;
69625;SDS011;56847;51.984;5.088;2024-03-06T11:00:49;50.00;;;32.22;;
69625;SDS011;56847;51.984;5.088;2024-03-06T11:03:17;44.33;;;30.25;;
69625;SDS011;56847;51.984;5.088;2024-03-06T11:05:45;44.67;;;32.03;;
69625;SDS011;56847;51.984;5.088;2024-03-06T11:08:15;47.43;;;29.73;;
69625;SDS011;56847;51.984;5.088;2024-03-06T11:10:44;49.83;;;32.03;;
69625;SDS011;56847;51.984;5.088;2024-03-06T11:13:25;50.00;;;33.97;;
69625;SDS011;56847;51.984;5.088;2024-03-06T11:15:53;45.38;;;30.25;;
69625;SDS011;56847;51.984;5.088;2024-03-06T11:23:30;43.53;;;30.08;;
69625;SDS011;56847;51.984;5.088;2024-03-06T11:26:01;50.22;;;31.73;;
69625;SDS011;56847;51.984;5.088;2024-03-06T11:28:36;41.13;;;29.17;;
69625;SDS011;56847;51.984;5.088;2024-03-06T11:31:05;41.60;;;29.92;;
69625;SDS011;56847;51.984;5.088;2024-03-06T11:33:40;43.50;;;31.27;;
69625;SDS011;56847;51.984;5.088;2024-03-06T11:36:28;41.40;;;29.15;;
69625;SDS011;56847;51.984;5.088;2024-03-06T11:39:02;45.33;;;29.48;;
69625;SDS011;56847;51.984;5.088;2024-03-06T11:41:31;49.97;;;27.50;;
69625;SDS011;56847;51.984;5.088;2024-03-06T11:44:02;36.22;;;27.17;;
69625;SDS011;56847;51.984;5.088;2024-03-06T11:46:45;39.23;;;27.03;;
69625;SDS011;56847;51.984;5.088;2024-03-06T11:49:20;36.10;;;26.75;;
69625;SDS011;56847;51.984;5.088;2024-03-06T11:51:51;34.92;;;25.38;;
69625;SDS011;56847;51.984;5.088;2024-03-06T11:54:19;32.42;;;24.02;;
69625;SDS011;56847;51.984;5.088;2024-03-06T11:56:51;33.92;;;24.10;;
69625;SDS011;56847;51.984;5.088;2024-03-06T11:59:21;35.50;;;23.60;;
69625;SDS011;56847;51.984;5.088;2024-03-06T12:01:55;34.67;;;22.65;;
69625;SDS011;56847;51.984;5.088;2024-03-06T12:04:29;34.55;;;23.90;;
69625;SDS011;56847;51.984;5.088;2024-03-06T12:06:57;32.90;;;23.23;;
69625;SDS011;56847;51.984;5.088;2024-03-06T12:09:38;34.63;;;23.35;;
69625;SDS011;56847;51.984;5.088;2024-03-06T12:12:09;33.03;;;22.67;;
69625;SDS011;56847;51.984;5.088;2024-03-06T12:14:37;32.35;;;22.92;;
69625;SDS011;56847;51.984;5.088;2024-03-06T12:17:10;38.25;;;22.52;;
69625;SDS011;56847;51.984;5.088;2024-03-06T12:19:43;28.90;;;21.52;;
69625;SDS011;56847;51.984;5.088;2024-03-06T12:22:13;33.47;;;21.70;;
69625;SDS011;56847;51.984;5.088;2024-03-06T12:24:42;30.70;;;21.73;;
69625;SDS011;56847;51.984;5.088;2024-03-06T12:27:09;33.00;;;22.48;;
69625;SDS011;56847;51.984;5.088;2024-03-06T12:29:36;29.02;;;20.77;;
69625;SDS011;56847;51.984;5.088;2024-03-06T12:32:15;28.92;;;22.15;;
69625;SDS011;56847;51.984;5.088;2024-03-06T12:34:44;31.17;;;21.83;;
69625;SDS011;56847;51.984;5.088;2024-03-06T12:37:11;35.00;;;22.77;;
69625;SDS011;56847;51.984;5.088;2024-03-06T12:39:38;37.13;;;23.13;;
69625;SDS011;56847;51.984;5.088;2024-03-06T12:42:09;27.90;;;21.35;;
69625;SDS011;56847;51.984;5.088;2024-03-06T12:44:37;34.13;;;22.23;;
69625;SDS011;56847;51.984;5.088;2024-03-06T12:47:06;30.80;;;21.90;;
69625;SDS011;56847;51.984;5.088;2024-03-06T12:49:33;31.70;;;21.70;;
69625;SDS011;56847;51.984;5.088;2024-03-06T12:52:00;28.00;;;20.25;;
69625;SDS011;56847;51.984;5.088;2024-03-06T12:54:31;25.95;;;19.88;;
69625;SDS011;56847;51.984;5.088;2024-03-06T12:56:58;26.80;;;17.38;;
69625;SDS011;56847;51.984;5.088;2024-03-06T12:59:26;28.33;;;19.40;;
69625;SDS011;56847;51.984;5.088;2024-03-06T13:01:53;26.00;;;18.43;;
69625;SDS011;56847;51.984;5.088;2024-03-06T13:04:21;26.73;;;18.58;;
69625;SDS011;56847;51.984;5.088;2024-03-06T13:06:48;24.20;;;18.73;;
69625;SDS011;56847;51.984;5.088;2024-03-06T13:09:15;24.52;;;17.15;;
69625;SDS011;56847;51.984;5.088;2024-03-06T13:11:42;22.02;;;15.50;;
69625;SDS011;56847;51.984;5.088;2024-03-06T13:14:10;22.10;;;14.83;;
69625;SDS011;56847;51.984;5.088;2024-03-06T13:16:39;19.58;;;14.20;;
69625;SDS011;56847;51.984;5.088;2024-03-06T13:19:07;16.75;;;13.48;;
69625;SDS011;56847;51.984;5.088;2024-03-06T13:21:35;16.95;;;14.05;;
69625;SDS011;56847;51.984;5.088;2024-03-06T13:24:02;21.85;;;14.25;;
69625;SDS011;56847;51.984;5.088;2024-03-06T13:26:30;20.03;;;13.97;;
69625;SDS011;56847;51.984;5.088;2024-03-06T13:28:57;18.67;;;14.00;;
69625;SDS011;56847;51.984;5.088;2024-03-06T13:31:26;18.05;;;13.90;;
69625;SDS011;56847;51.984;5.088;2024-03-06T13:33:53;21.05;;;14.00;;
69625;SDS011;56847;51.984;5.088;2024-03-06T13:36:20;17.27;;;14.45;;
69625;SDS011;56847;51.984;5.088;2024-03-06T13:38:49;16.77;;;12.93;;
69625;SDS011;56847;51.984;5.088;2024-03-06T13:41:16;17.85;;;12.77;;
69625;SDS011;56847;51.984;5.088;2024-03-06T13:43:43;19.88;;;15.55;;
69625;SDS011;56847;51.984;5.088;2024-03-06T13:46:10;18.63;;;13.45;;
69625;SDS011;56847;51.984;5.088;2024-03-06T13:48:37;16.52;;;13.75;;
69625;SDS011;56847;51.984;5.088;2024-03-06T13:51:04;16.80;;;13.03;;
69625;SDS011;56847;51.984;5.088;2024-03-06T13:53:35;17.02;;;12.50;;
69625;SDS011;56847;51.984;5.088;2024-03-06T13:56:02;19.42;;;14.18;;
69625;SDS011;56847;51.984;5.088;2024-03-06T13:58:29;18.00;;;13.30;;
69625;SDS011;56847;51.984;5.088;2024-03-06T14:00:56;19.45;;;14.30;;
69625;SDS011;56847;51.984;5.088;2024-03-06T14:03:23;15.03;;;12.77;;
69625;SDS011;56847;51.984;5.088;2024-03-06T14:05:51;18.60;;;13.88;;
69625;SDS011;56847;51.984;5.088;2024-03-06T14:08:18;18.10;;;13.88;;
69625;SDS011;56847;51.984;5.088;2024-03-06T14:10:45;17.00;;;13.10;;
69625;SDS011;56847;51.984;5.088;2024-03-06T14:13:12;16.98;;;12.88;;
69625;SDS011;56847;51.984;5.088;2024-03-06T14:15:39;17.27;;;11.67;;
69625;SDS011;56847;51.984;5.088;2024-03-06T14:18:06;18.05;;;12.30;;
69625;SDS011;56847;51.984;5.088;2024-03-06T14:20:34;17.35;;;13.63;;
69625;SDS011;56847;51.984;5.088;2024-03-06T14:23:01;19.02;;;12.77;;
69625;SDS011;56847;51.984;5.088;2024-03-06T14:25:29;22.58;;;15.27;;
69625;SDS011;56847;51.984;5.088;2024-03-06T14:27:56;18.47;;;14.07;;
69625;SDS011;56847;51.984;5.088;2024-03-06T14:30:23;17.75;;;13.43;;
69625;SDS011;56847;51.984;5.088;2024-03-06T14:32:50;15.95;;;11.95;;
69625;SDS011;56847;51.984;5.088;2024-03-06T14:35:18;19.88;;;12.40;;
69625;SDS011;56847;51.984;5.088;2024-03-06T14:37:45;18.40;;;13.32;;
69625;SDS011;56847;51.984;5.088;2024-03-06T14:40:12;21.57;;;13.17;;